Time;durP1;ratioP1;P1;durP2;ratioP2;P2;SDS_P1;SDS_P2;PMS_P1;PMS_P2;Temp;Humidity;BMP_temperature;BMP_pressure;BME280_temperature;BME280_humidity;BME280_pressure;Samples;Min_cycle;Max_cycle;Signal;HPM_P1;HPM_P2
2023/06/23 00:01:54;;;;;;;7.43;4.35;;;;;;;17.62;98.75;100121.47;10478944;28;20064;-86
2023/06/23 00:06:59;;;;;;;8.25;5.32;;;;;;;17.65;98.36;100112.47;10452294;28;20039;-86
2023/06/23 00:12:01;;;;;;;8.00;5.13;;;;;;;17.69;97.91;100109.84;10469913;28;20507;-85
2023/06/23 00:17:05;;;;;;;9.63;5.38;;;;;;;17.70;98.57;100111.47;10459049;28;20574;-86
2023/06/23 00:22:07;;;;;;;11.63;6.90;;;;;;;17.89;98.30;100105.41;10474963;28;20047;-86
2023/06/23 00:27:09;;;;;;;9.70;6.43;;;;;;;17.98;98.98;100106.94;10467893;28;20049;-85
2023/06/23 00:32:12;;;;;;;12.70;7.85;;;;;;;18.00;98.99;100112.13;10469934;28;20040;-86
2023/06/23 00:37:15;;;;;;;17.08;9.68;;;;;;;17.93;99.53;100117.44;10459401;28;20036;-86
2023/06/23 00:42:18;;;;;;;15.55;9.30;;;;;;;17.92;98.93;100110.28;10479954;28;20049;-85
2023/06/23 00:47:29;;;;;;;14.52;9.52;;;;;;;17.89;98.60;100120.13;10473595;28;20044;-86
2023/06/23 00:52:35;;;;;;;17.35;9.95;;;;;;;17.86;98.56;100117.19;10469033;28;20040;-88
2023/06/23 00:57:37;;;;;;;15.32;8.95;;;;;;;17.89;98.51;100122.06;10475176;28;20047;-88
2023/06/23 01:02:39;;;;;;;15.52;8.10;;;;;;;17.82;98.88;100130.94;10465188;28;20153;-86
2023/06/23 01:08:20;;;;;;;15.25;8.50;;;;;;;17.75;99.68;100131.50;10458735;28;20039;-86
2023/06/23 01:14:01;;;;;;;13.82;7.70;;;;;;;17.84;100.00;100127.81;10446162;28;20071;-85
2023/06/23 01:19:27;;;;;;;11.50;6.82;;;;;;;17.85;99.56;100143.31;10469871;28;20044;-86
2023/06/23 01:24:46;;;;;;;10.80;7.20;;;;;;;17.81;99.77;100129.31;10452831;28;20048;-86
2023/06/23 01:29:52;;;;;;;11.30;6.72;;;;;;;17.78;100.00;100136.38;10464609;28;20047;-86
2023/06/23 01:35:03;;;;;;;10.77;6.18;;;;;;;17.88;100.00;100137.09;10474453;28;20041;-86
2023/06/23 01:40:10;;;;;;;9.77;6.47;;;;;;;17.92;100.00;100138.84;10480590;28;20143;-86
2023/06/23 01:45:14;;;;;;;9.85;5.80;;;;;;;17.99;100.00;100133.53;10482627;28;20056;-86
2023/06/23 01:50:18;;;;;;;11.13;6.90;;;;;;;18.05;99.79;100134.16;10466624;28;20495;-86
2023/06/23 01:55:22;;;;;;;12.43;6.60;;;;;;;18.12;100.00;100133.56;10465265;28;20049;-86
2023/06/23 02:00:24;;;;;;;9.27;5.90;;;;;;;18.23;99.64;100127.25;10461321;28;20049;-86
2023/06/23 02:05:27;;;;;;;10.23;6.78;;;;;;;18.14;99.68;100129.28;10512779;28;20075;-86
2023/06/23 02:10:30;;;;;;;12.20;7.75;;;;;;;18.13;99.67;100129.63;10487339;28;20041;-86
2023/06/23 02:15:32;;;;;;;13.15;8.52;;;;;;;18.10;98.98;100136.69;10439747;28;20047;-86
2023/06/23 02:20:35;;;;;;;13.23;8.77;;;;;;;18.12;98.89;100131.59;10476313;28;20039;-86
2023/06/23 02:25:39;;;;;;;11.80;8.55;;;;;;;18.17;99.59;100131.38;10442006;28;20056;-86
2023/06/23 02:30:43;;;;;;;13.90;9.20;;;;;;;18.22;98.87;100128.41;10464481;28;20052;-86
2023/06/23 02:35:46;;;;;;;16.05;9.32;;;;;;;18.23;98.75;100126.44;10478803;28;20645;-85
2023/06/23 02:40:49;;;;;;;18.40;9.20;;;;;;;18.22;98.68;100122.84;10483183;28;20040;-86
2023/06/23 02:45:54;;;;;;;15.98;10.23;;;;;;;18.23;98.92;100127.25;10460033;28;20052;-86
2023/06/23 02:50:57;;;;;;;16.67;10.45;;;;;;;18.21;99.09;100126.75;10459945;28;20044;-86
2023/06/23 02:56:03;;;;;;;19.00;11.35;;;;;;;18.14;99.10;100126.53;10451840;28;20028;-86
2023/06/23 03:01:06;;;;;;;14.60;10.07;;;;;;;18.12;98.79;100117.72;10449187;28;20052;-86
2023/06/23 03:06:22;;;;;;;17.13;10.68;;;;;;;18.16;99.59;100121.44;10474135;28;20040;-86
2023/06/23 03:11:24;;;;;;;16.15;9.63;;;;;;;18.21;99.31;100131.50;10453678;28;20040;-86
2023/06/23 03:16:51;;;;;;;17.48;11.35;;;;;;;18.16;98.71;100131.72;10474050;28;20032;-88
2023/06/23 03:22:04;;;;;;;17.92;10.82;;;;;;;18.19;98.76;100131.84;10457122;28;20044;-86
2023/06/23 03:27:08;;;;;;;15.55;10.32;;;;;;;18.24;98.89;100151.06;10449654;28;20032;-86
2023/06/23 03:32:12;;;;;;;16.33;10.88;;;;;;;18.32;98.86;100141.81;10477176;28;20044;-88
2023/06/23 03:37:15;;;;;;;18.00;10.93;;;;;;;18.30;98.53;100149.69;10451950;28;20059;-88
2023/06/23 03:42:19;;;;;;;17.67;11.23;;;;;;;18.24;98.67;100153.84;10463567;28;20052;-88
2023/06/23 03:47:24;;;;;;;18.65;11.63;;;;;;;18.27;98.67;100152.34;10466026;28;20037;-85
2023/06/23 03:52:27;;;;;;;14.43;9.95;;;;;;;18.16;98.75;100151.97;10473844;28;20044;-88
2023/06/23 03:57:31;;;;;;;16.73;10.85;;;;;;;18.13;99.12;100155.44;10457804;28;20048;-88
2023/06/23 04:02:34;;;;;;;15.70;10.57;;;;;;;18.14;99.77;100145.94;10451755;28;20036;-88
2023/06/23 04:07:36;;;;;;;17.92;11.05;;;;;;;18.12;99.01;100145.50;10457453;28;20526;-88
2023/06/23 04:12:39;;;;;;;16.20;10.35;;;;;;;18.10;98.96;100149.78;10469469;28;20056;-88
2023/06/23 04:17:42;;;;;;;16.13;10.32;;;;;;;18.21;99.01;100145.38;10454541;28;20047;-87
2023/06/23 04:22:46;;;;;;;17.30;11.07;;;;;;;18.33;98.28;100151.78;10485808;28;20047;-88
2023/06/23 04:27:51;;;;;;;15.18;10.85;;;;;;;18.34;97.90;100149.81;10471487;28;20492;-89
2023/06/23 04:32:53;;;;;;;16.48;10.88;;;;;;;18.32;97.50;100146.56;10489499;28;20040;-90
2023/06/23 04:38:02;;;;;;;18.13;11.00;;;;;;;18.22;96.46;100155.34;10488515;28;20045;-87
2023/06/23 04:43:18;;;;;;;17.23;10.68;;;;;;;18.30;97.00;100162.78;10472586;28;20053;-87
2023/06/23 04:48:26;;;;;;;19.60;11.90;;;;;;;18.47;97.59;100157.00;10456457;28;20044;-86
2023/06/23 04:53:32;;;;;;;19.02;11.32;;;;;;;18.51;96.56;100163.47;10470423;28;20483;-86
2023/06/23 04:58:38;;;;;;;16.83;10.88;;;;;;;18.67;96.30;100163.66;10464878;28;20051;-86
2023/06/23 05:03:41;;;;;;;17.48;11.00;;;;;;;18.87;95.86;100167.47;10488690;28;20037;-86
2023/06/23 05:08:48;;;;;;;19.23;11.70;;;;;;;19.06;95.51;100180.75;10459737;28;21242;-86
2023/06/23 05:13:51;;;;;;;18.08;10.85;;;;;;;19.23;94.83;100177.72;10483129;28;20032;-86
2023/06/23 05:18:54;;;;;;;13.90;9.57;;;;;;;19.34;93.22;100175.28;10438629;28;20044;-87
2023/06/23 05:23:57;;;;;;;15.73;10.45;;;;;;;19.50;92.56;100174.19;10490903;28;20495;-87
2023/06/23 05:29:01;;;;;;;16.98;10.93;;;;;;;19.68;91.94;100179.50;10474525;28;20032;-88
2023/06/23 05:34:05;;;;;;;13.80;9.48;;;;;;;20.06;89.32;100179.78;10465337;28;20411;-86
2023/06/23 05:39:08;;;;;;;14.55;9.73;;;;;;;21.17;85.27;100185.38;10445329;28;20043;-87
2023/06/23 05:44:10;;;;;;;12.75;8.45;;;;;;;21.83;79.84;100193.66;10453968;28;20045;-87
2023/06/23 05:49:15;;;;;;;10.77;7.57;;;;;;;22.13;77.00;100198.66;10488411;28;20056;-87
2023/06/23 05:54:19;;;;;;;10.23;7.18;;;;;;;21.40;77.42;100199.50;10455142;28;20032;-87
2023/06/23 05:59:28;;;;;;;9.38;7.15;;;;;;;20.80;79.51;100185.72;10476874;28;20491;-87
2023/06/23 06:04:33;;;;;;;9.95;7.28;;;;;;;20.34;81.01;100212.41;10482526;28;20044;-87
2023/06/23 06:09:35;;;;;;;10.18;7.60;;;;;;;20.13;83.35;100202.28;10513226;28;20054;-86
2023/06/23 06:14:38;;;;;;;9.93;7.55;;;;;;;19.96;85.25;100207.34;10461022;28;20052;-87
2023/06/23 06:19:41;;;;;;;13.15;7.80;;;;;;;20.07;85.85;100216.81;10510604;28;20035;-87
2023/06/23 06:24:45;;;;;;;13.50;9.20;;;;;;;20.09;85.54;100214.47;10482418;28;20044;-87
2023/06/23 06:29:48;;;;;;;13.95;8.68;;;;;;;20.03;85.82;100222.28;10476331;28;20044;-87
2023/06/23 06:34:51;;;;;;;12.65;8.77;;;;;;;20.10;84.91;100218.88;10458861;28;20044;-86
2023/06/23 06:39:53;;;;;;;14.65;9.05;;;;;;;20.17;84.04;100214.34;10478295;28;20028;-87
2023/06/23 06:44:55;;;;;;;12.80;8.52;;;;;;;20.48;82.66;100221.16;10446773;28;20052;-87
2023/06/23 06:49:59;;;;;;;12.43;8.23;;;;;;;21.23;80.84;100207.09;10462297;28;20495;-88
2023/06/23 06:55:03;;;;;;;13.38;9.02;;;;;;;22.64;73.38;100210.41;10431837;28;20044;-88
2023/06/23 07:00:09;;;;;;;10.82;7.20;;;;;;;23.61;69.11;100219.16;10413330;28;20041;-88
2023/06/23 07:05:12;;;;;;;8.50;6.78;;;;;;;22.55;69.54;100221.81;10474775;28;20041;-88
2023/06/23 07:10:14;;;;;;;9.57;6.35;;;;;;;22.21;70.05;100231.16;10470530;28;20526;-88
2023/06/23 07:15:17;;;;;;;8.52;6.22;;;;;;;21.95;70.43;100227.03;10451810;28;20049;-87
2023/06/23 07:20:19;;;;;;;9.25;6.72;;;;;;;21.74;71.09;100223.81;10445844;28;20037;-87
2023/06/23 07:25:21;;;;;;;9.57;6.75;;;;;;;21.77;71.54;100234.22;10453956;28;20033;-88
2023/06/23 07:30:24;;;;;;;9.23;6.72;;;;;;;22.24;72.21;100241.63;10485832;28;20059;-87
2023/06/23 07:35:26;;;;;;;11.20;7.25;;;;;;;22.95;69.26;100228.94;10470413;28;20049;-88
2023/06/23 07:40:28;;;;;;;10.85;7.32;;;;;;;23.14;69.65;100233.63;10454345;28;20480;-88
2023/06/23 07:45:30;;;;;;;10.10;7.35;;;;;;;22.88;71.24;100250.38;10468786;28;20067;-88
2023/06/23 07:50:33;;;;;;;9.52;7.22;;;;;;;22.58;72.18;100248.25;10449925;28;20511;-88
2023/06/23 07:55:35;;;;;;;14.02;7.50;;;;;;;22.24;71.48;100255.59;10449542;28;20037;-87
2023/06/23 08:00:37;;;;;;;9.13;6.85;;;;;;;21.89;73.62;100272.41;10434685;28;20063;-88
2023/06/23 08:05:41;;;;;;;7.47;6.10;;;;;;;21.78;74.94;100249.81;10468764;28;20039;-92
2023/06/23 08:10:44;;;;;;;6.88;5.57;;;;;;;21.72;74.31;100253.28;10456853;28;20051;-88
2023/06/23 08:15:46;;;;;;;6.13;4.60;;;;;;;21.55;74.23;100257.28;10465300;28;20396;-87
2023/06/23 08:20:49;;;;;;;14.15;8.82;;;;;;;21.21;77.18;100256.88;10444996;28;20045;-88
2023/06/23 08:25:52;;;;;;;15.43;9.45;;;;;;;20.94;79.91;100268.94;10440815;28;20048;-86
2023/06/23 08:30:55;;;;;;;16.55;9.52;;;;;;;20.53;81.86;100273.84;10469206;28;20037;-89
2023/06/23 08:35:57;;;;;;;15.55;9.35;;;;;;;20.34;83.73;100273.69;10435230;28;20041;-89
2023/06/23 08:40:59;;;;;;;16.65;9.02;;;;;;;20.43;84.40;100277.97;10471557;28;20059;-89
2023/06/23 08:46:02;;;;;;;14.45;8.88;;;;;;;20.66;82.16;100286.56;10452148;28;20443;-86
2023/06/23 08:51:05;;;;;;;12.57;8.35;;;;;;;20.96;80.42;100278.56;10464031;28;20519;-89
2023/06/23 08:56:07;;;;;;;13.27;8.55;;;;;;;21.96;75.88;100280.91;10475333;28;20047;-85
2023/06/23 09:01:09;;;;;;;12.57;8.88;;;;;;;22.98;71.92;100270.16;10476911;28;20037;-86
2023/06/23 09:06:11;;;;;;;11.02;7.22;;;;;;;23.89;66.24;100271.16;10468078;28;20032;-87
2023/06/23 09:11:14;;;;;;;10.55;6.75;;;;;;;24.63;62.91;100279.66;10448005;28;20400;-86
2023/06/23 09:16:18;;;;;;;8.23;6.28;;;;;;;25.09;60.30;100273.72;10474378;28;20036;-85
2023/06/23 09:21:20;;;;;;;7.55;5.65;;;;;;;25.15;57.85;100275.75;10459775;28;20041;-87
2023/06/23 09:26:22;;;;;;;7.57;5.93;;;;;;;24.99;57.06;100274.38;10492422;28;20037;-86
2023/06/23 09:31:24;;;;;;;8.20;5.30;;;;;;;24.30;58.89;100278.53;10491611;28;20029;-86
2023/06/23 09:36:33;;;;;;;10.05;6.07;;;;;;;23.94;59.90;100277.22;10474528;28;20036;-86
2023/06/23 09:41:35;;;;;;;7.90;5.90;;;;;;;23.65;59.72;100283.66;10514510;28;20082;-87
2023/06/23 09:46:37;;;;;;;7.07;5.07;;;;;;;23.39;60.37;100290.81;10500385;28;20044;-86
2023/06/23 09:51:46;;;;;;;7.47;5.25;;;;;;;23.44;60.84;100272.91;10499330;28;20060;-85
2023/06/23 09:57:01;;;;;;;8.52;5.55;;;;;;;23.48;61.13;100256.97;10486623;28;20041;-86
2023/06/23 10:02:03;;;;;;;7.38;5.82;;;;;;;23.32;61.90;100265.50;10467358;28;20040;-85
2023/06/23 10:07:22;;;;;;;8.95;6.25;;;;;;;23.14;63.03;100272.81;10483776;28;20036;-87
2023/06/23 10:12:26;;;;;;;9.40;5.47;;;;;;;23.25;62.19;100270.19;10500678;28;20067;-86
2023/06/23 10:17:28;;;;;;;8.98;5.53;;;;;;;23.28;62.47;100280.66;10516414;28;20411;-85
2023/06/23 10:22:30;;;;;;;8.90;5.55;;;;;;;23.14;60.63;100272.81;10499692;28;20041;-86
2023/06/23 10:27:35;;;;;;;7.70;4.50;;;;;;;23.17;60.13;100277.66;10516614;28;20040;-86
2023/06/23 10:32:38;;;;;;;6.47;4.55;;;;;;;23.29;59.66;100274.66;10506629;28;20052;-87
2023/06/23 10:37:43;;;;;;;8.95;4.80;;;;;;;23.37;58.81;100289.59;10482254;28;20040;-85
2023/06/23 10:43:04;;;;;;;7.65;5.32;;;;;;;23.28;58.88;100283.44;10499034;28;20049;-85
2023/06/23 10:48:15;;;;;;;7.40;4.45;;;;;;;23.36;58.89;100296.38;10495703;28;20418;-87
2023/06/23 10:53:18;;;;;;;7.32;4.97;;;;;;;23.40;58.51;100302.81;10482083;28;20049;-86
2023/06/23 10:58:20;;;;;;;5.38;4.38;;;;;;;23.38;57.33;100306.00;10499118;28;20044;-87
2023/06/23 11:03:33;;;;;;;6.63;4.50;;;;;;;23.52;58.11;100307.41;10498134;28;20048;-85
2023/06/23 11:08:37;;;;;;;6.63;4.07;;;;;;;23.54;58.17;100307.84;10488917;28;20420;-87
2023/06/23 11:13:49;;;;;;;9.80;4.85;;;;;;;23.46;57.46;100316.16;10464836;28;20045;-86
2023/06/23 11:18:53;;;;;;;5.63;4.30;;;;;;;23.44;57.56;100317.72;10481280;28;20513;-86
2023/06/23 11:24:11;;;;;;;6.55;4.15;;;;;;;23.39;57.57;100312.41;10480855;28;20037;-86
2023/06/23 11:29:16;;;;;;;7.35;4.75;;;;;;;23.38;57.49;100316.41;10513359;28;20511;-87
2023/06/23 11:34:20;;;;;;;6.90;4.50;;;;;;;23.40;57.31;100319.63;10508598;28;20041;-86
2023/06/23 11:39:22;;;;;;;7.32;4.57;;;;;;;23.46;57.77;100323.75;10452745;28;20040;-85
2023/06/23 11:44:29;;;;;;;5.95;4.68;;;;;;;23.48;56.61;100323.38;10458173;28;20051;-91
2023/06/23 11:49:32;;;;;;;7.22;4.78;;;;;;;23.17;57.78;100326.06;10456605;28;20033;-87
2023/06/23 11:54:38;;;;;;;11.00;5.60;;;;;;;23.17;58.44;100328.06;10440534;28;20040;-84
2023/06/23 11:59:40;;;;;;;8.18;4.80;;;;;;;23.20;58.64;100335.69;10525954;28;20407;-85
2023/06/23 12:04:42;;;;;;;5.97;4.60;;;;;;;23.45;57.47;100341.72;10461242;28;20036;-84
2023/06/23 12:09:45;;;;;;;9.10;5.47;;;;;;;23.64;56.55;100352.88;10512327;28;20036;-86
2023/06/23 12:14:48;;;;;;;5.72;4.38;;;;;;;23.74;56.34;100355.00;10477607;28;20044;-85
2023/06/23 12:19:51;;;;;;;8.43;5.10;;;;;;;23.63;56.08;100347.66;10491465;28;20043;-86
2023/06/23 12:24:55;;;;;;;7.40;5.30;;;;;;;23.39;56.35;100332.81;10510539;28;20538;-87
2023/06/23 12:30:14;;;;;;;6.13;4.60;;;;;;;23.30;57.19;100326.69;10510697;28;20036;-86
2023/06/23 12:35:18;;;;;;;6.90;5.28;;;;;;;23.30;56.25;100321.09;10510205;28;20048;-85
2023/06/23 12:40:30;;;;;;;5.85;4.68;;;;;;;23.10;57.05;100334.34;10462601;28;20059;-86
2023/06/23 12:45:36;;;;;;;7.00;5.38;;;;;;;22.99;57.73;100332.53;10518443;28;20041;-84
2023/06/23 12:50:42;;;;;;;6.65;5.13;;;;;;;22.98;57.51;100337.31;10490819;28;20541;-84
2023/06/23 12:55:45;;;;;;;6.37;4.70;;;;;;;22.89;56.81;100349.94;10461371;28;20040;-84
2023/06/23 13:00:47;;;;;;;6.00;4.75;;;;;;;22.82;57.73;100347.81;10477129;28;20036;-85
2023/06/23 13:05:49;;;;;;;7.20;4.88;;;;;;;22.81;57.74;100357.34;10460648;28;20055;-85
2023/06/23 13:10:52;;;;;;;9.88;5.57;;;;;;;22.78;58.05;100360.91;10459902;28;20037;-86
2023/06/23 13:15:54;;;;;;;6.28;4.88;;;;;;;22.75;58.00;100356.06;10471493;28;20040;-88
2023/06/23 13:20:57;;;;;;;6.72;5.00;;;;;;;22.69;57.47;100349.13;10459552;28;20052;-86
2023/06/23 13:25:59;;;;;;;5.75;4.90;;;;;;;22.63;58.30;100361.78;10477165;28;20044;-87
2023/06/23 13:31:01;;;;;;;6.95;4.50;;;;;;;22.63;57.20;100353.41;10469270;28;20044;-85
2023/06/23 13:36:03;;;;;;;6.53;4.70;;;;;;;22.60;57.11;100365.34;10467179;28;20043;-91
2023/06/23 13:41:06;;;;;;;6.32;4.75;;;;;;;22.62;57.61;100357.38;10454633;28;20053;-86
2023/06/23 13:46:09;;;;;;;7.22;5.05;;;;;;;22.66;58.26;100363.84;10465700;28;20049;-85
2023/06/23 13:51:11;;;;;;;8.05;4.75;;;;;;;22.60;58.28;100354.16;10474102;28;20498;-86
2023/06/23 13:56:13;;;;;;;6.47;4.30;;;;;;;22.62;58.19;100344.22;10491625;28;20043;-86
2023/06/23 14:01:19;;;;;;;6.38;4.60;;;;;;;22.66;58.03;100353.47;10476082;28;20045;-85
2023/06/23 14:06:25;;;;;;;5.82;4.15;;;;;;;22.59;58.50;100352.53;10489610;28;20047;-85
2023/06/23 14:11:27;;;;;;;6.30;4.68;;;;;;;22.63;58.01;100359.00;10473981;28;20052;-85
2023/06/23 14:16:29;;;;;;;6.75;4.68;;;;;;;22.56;57.03;100354.91;10460375;28;20044;-86
2023/06/23 14:21:34;;;;;;;9.18;5.18;;;;;;;22.47;57.73;100379.47;10445695;28;20089;-86
2023/06/23 14:26:36;;;;;;;7.97;4.78;;;;;;;22.43;58.12;100378.59;10478569;28;20041;-84
2023/06/23 14:31:39;;;;;;;6.57;4.75;;;;;;;22.48;59.64;100383.88;10476993;28;20052;-84
2023/06/23 14:36:41;;;;;;;7.32;5.05;;;;;;;22.48;59.42;100389.47;10515226;28;20040;-84
2023/06/23 14:41:43;;;;;;;6.40;4.55;;;;;;;22.37;59.42;100399.59;10446490;28;20044;-85
2023/06/23 14:46:47;;;;;;;6.97;4.57;;;;;;;22.35;60.11;100403.94;10532073;28;20534;-86
2023/06/23 14:51:50;;;;;;;7.68;4.72;;;;;;;22.43;60.39;100411.34;10513974;28;20041;-84
2023/06/23 14:56:52;;;;;;;7.47;5.30;;;;;;;22.48;60.13;100414.63;10514297;28;20044;-84
2023/06/23 15:01:54;;;;;;;6.82;4.72;;;;;;;22.49;59.28;100407.88;10513662;28;20048;-85
2023/06/23 15:06:56;;;;;;;6.20;4.25;;;;;;;22.42;60.55;100404.94;10514297;28;20051;-85
2023/06/23 15:11:58;;;;;;;7.93;4.72;;;;;;;22.32;61.07;100405.50;10514443;28;20048;-85
2023/06/23 15:17:01;;;;;;;6.93;4.63;;;;;;;22.18;60.84;100414.38;10511065;28;20040;-85
2023/06/23 15:22:05;;;;;;;5.43;3.90;;;;;;;22.01;61.45;100405.56;10496358;28;20415;-84
2023/06/23 15:27:07;;;;;;;6.97;4.30;;;;;;;21.94;62.16;100407.00;10492865;28;20033;-85
2023/06/23 15:32:09;;;;;;;5.53;4.13;;;;;;;21.86;61.70;100405.22;10495645;28;20056;-85
2023/06/23 15:37:11;;;;;;;6.88;4.82;;;;;;;21.80;62.30;100406.66;10488822;28;20036;-87
2023/06/23 15:42:16;;;;;;;5.88;4.55;;;;;;;21.74;62.88;100404.53;10455863;28;20055;-87
2023/06/23 15:47:18;;;;;;;6.95;4.85;;;;;;;21.73;62.47;100400.13;10460042;28;20033;-84
2023/06/23 15:52:21;;;;;;;7.57;4.38;;;;;;;21.68;62.33;100403.97;10477838;28;20043;-84
2023/06/23 15:57:23;;;;;;;6.55;4.95;;;;;;;21.73;62.64;100398.13;10493116;28;20038;-85
2023/06/23 16:02:28;;;;;;;5.65;4.60;;;;;;;21.75;62.82;100423.72;10471561;28;20036;-83
2023/06/23 16:08:00;;;;;;;5.82;4.25;;;;;;;21.77;62.76;100437.31;10476420;28;20049;-88
2023/06/23 16:13:02;;;;;;;6.65;4.97;;;;;;;21.73;63.03;100442.81;10466835;28;20052;-83
2023/06/23 16:18:14;;;;;;;6.57;4.63;;;;;;;21.62;63.22;100462.09;10473516;28;20068;-87
2023/06/23 16:23:44;;;;;;;6.85;5.30;;;;;;;21.60;64.00;100474.78;10491847;28;20043;-86
2023/06/23 16:28:52;;;;;;;5.55;4.38;;;;;;;21.53;63.74;100472.63;10486771;28;20092;-85
2023/06/23 16:33:54;;;;;;;5.45;4.13;;;;;;;21.40;65.26;100479.47;10463997;28;20055;-85
2023/06/23 16:38:57;;;;;;;7.28;5.10;;;;;;;21.42;65.56;100474.34;10485940;28;20037;-87
2023/06/23 16:44:01;;;;;;;7.28;5.18;;;;;;;21.33;66.02;100468.91;10478097;28;20128;-87
2023/06/23 16:49:04;;;;;;;7.38;5.38;;;;;;;21.27;66.30;100470.34;10501563;28;20042;-84
2023/06/23 16:54:06;;;;;;;7.53;5.38;;;;;;;21.22;67.42;100487.31;10472230;28;20044;-85
2023/06/23 16:59:11;;;;;;;10.55;6.28;;;;;;;21.05;68.86;100477.28;10455234;28;20043;-86
2023/06/23 17:04:14;;;;;;;8.90;6.13;;;;;;;20.92;70.73;100470.13;10466461;28;20036;-84
2023/06/23 17:09:16;;;;;;;7.60;5.38;;;;;;;20.84;71.45;100468.31;10470896;28;20044;-85
2023/06/23 17:14:21;;;;;;;9.02;6.03;;;;;;;20.84;71.99;100464.72;10457527;28;20036;-84
2023/06/23 17:19:24;;;;;;;8.75;6.72;;;;;;;20.82;73.08;100456.69;10463427;28;20832;-85
2023/06/23 17:24:26;;;;;;;8.27;6.07;;;;;;;20.66;74.03;100453.84;10462253;28;20136;-85
2023/06/23 17:29:32;;;;;;;9.15;6.03;;;;;;;20.61;74.62;100448.50;10460229;28;20528;-85
2023/06/23 17:34:35;;;;;;;10.95;5.78;;;;;;;20.60;75.23;100454.44;10481825;28;20055;-86
2023/06/23 17:39:37;;;;;;;8.00;5.68;;;;;;;20.52;74.50;100459.00;10469336;28;20055;-84
2023/06/23 17:44:39;;;;;;;8.48;5.93;;;;;;;20.42;75.64;100459.47;10485799;28;20049;-85
2023/06/23 17:49:41;;;;;;;6.22;4.38;;;;;;;20.28;75.83;100448.69;10453277;28;20372;-86
2023/06/23 17:54:43;;;;;;;8.38;5.47;;;;;;;20.25;75.25;100449.38;10488148;28;20043;-86
2023/06/23 17:59:46;;;;;;;11.98;4.97;;;;;;;20.13;75.57;100460.53;10474695;28;20803;-85
2023/06/23 18:04:48;;;;;;;7.65;4.80;;;;;;;20.12;75.30;100450.56;10492587;28;20071;-86
2023/06/23 18:09:51;;;;;;;7.30;4.55;;;;;;;20.14;75.64;100449.06;10472655;28;20096;-86
2023/06/23 18:14:53;;;;;;;7.15;4.72;;;;;;;20.08;74.42;100450.44;10474468;28;20514;-85
2023/06/23 18:19:56;;;;;;;6.55;4.45;;;;;;;19.95;74.13;100461.94;10484631;28;20036;-85
2023/06/23 18:25:01;;;;;;;5.68;4.07;;;;;;;19.86;74.32;100460.09;10451683;28;20032;-84
2023/06/23 18:30:03;;;;;;;7.18;4.80;;;;;;;19.78;73.89;100460.19;10505684;28;20728;-86
2023/06/23 18:35:07;;;;;;;6.68;4.78;;;;;;;19.78;72.82;100460.19;10513320;28;20407;-85
2023/06/23 18:40:10;;;;;;;5.55;3.67;;;;;;;19.79;71.78;100464.63;10506450;28;20071;-86
2023/06/23 18:45:14;;;;;;;5.22;3.38;;;;;;;19.68;69.69;100471.81;10479717;28;20049;-86
2023/06/23 18:50:16;;;;;;;5.88;3.30;;;;;;;19.61;68.92;100469.56;10479212;28;20044;-87
2023/06/23 18:55:19;;;;;;;3.55;2.80;;;;;;;19.60;68.42;100462.38;10496591;28;20590;-87
2023/06/23 19:00:21;;;;;;;4.93;3.08;;;;;;;19.56;68.65;100467.84;10474867;28;20426;-88
2023/06/23 19:05:23;;;;;;;5.80;3.13;;;;;;;19.49;68.20;100461.19;10478912;28;20036;-88
2023/06/23 19:10:25;;;;;;;4.63;3.35;;;;;;;19.47;67.96;100474.66;10472624;28;20053;-90
2023/06/23 19:15:28;;;;;;;6.40;3.25;;;;;;;19.46;67.95;100479.41;10471907;28;20039;-91
2023/06/23 19:20:30;;;;;;;3.85;2.50;;;;;;;19.38;68.39;100474.72;10477896;28;20036;-90
2023/06/23 19:25:32;;;;;;;4.70;2.85;;;;;;;19.25;68.91;100475.84;10488209;28;20044;-86
2023/06/23 19:30:34;;;;;;;4.68;3.08;;;;;;;19.16;69.18;100477.91;10497797;28;20036;-87
2023/06/23 19:35:37;;;;;;;3.80;2.40;;;;;;;19.16;69.29;100483.50;10488607;28;20040;-87
2023/06/23 19:40:40;;;;;;;4.13;2.67;;;;;;;19.06;69.64;100479.16;10478878;28;20503;-88
2023/06/23 19:45:42;;;;;;;4.50;2.60;;;;;;;19.00;70.26;100474.97;10473737;28;20048;-88
2023/06/23 19:50:48;;;;;;;4.43;2.50;;;;;;;18.91;70.61;100469.47;10449227;28;20047;-89
2023/06/23 19:55:50;;;;;;;3.00;2.28;;;;;;;18.84;70.96;100473.97;10484629;28;20035;-88
2023/06/23 20:00:52;;;;;;;4.35;3.05;;;;;;;18.76;71.63;100481.25;10463629;28;20499;-88
2023/06/23 20:05:54;;;;;;;3.20;2.13;;;;;;;18.75;72.35;100478.81;10490563;28;20035;-87
2023/06/23 20:11:02;;;;;;;7.38;2.53;;;;;;;18.75;72.51;100481.59;10486283;28;20144;-87
2023/06/23 20:16:04;;;;;;;5.00;2.63;;;;;;;18.79;72.26;100485.31;10492577;28;20040;-87
2023/06/23 20:21:06;;;;;;;3.40;2.45;;;;;;;18.80;72.08;100484.97;10443448;28;20032;-87
2023/06/23 20:26:08;;;;;;;6.22;3.20;;;;;;;18.76;72.70;100492.38;10483033;28;20048;-87
2023/06/23 20:31:11;;;;;;;3.25;2.20;;;;;;;18.73;72.99;100487.47;10479529;28;20036;-87
2023/06/23 20:36:13;;;;;;;3.92;2.47;;;;;;;18.72;73.41;100483.06;10481713;28;20044;-87
2023/06/23 20:41:23;;;;;;;3.63;2.63;;;;;;;18.67;73.76;100483.28;10514385;28;20131;-86
2023/06/23 20:46:25;;;;;;;5.05;2.88;;;;;;;18.61;73.44;100481.81;10517928;28;20041;-87
2023/06/23 20:51:28;;;;;;;4.07;2.47;;;;;;;18.60;74.12;100494.09;10497015;28;20037;-88
2023/06/23 20:56:34;;;;;;;2.78;2.42;;;;;;;18.61;73.89;100492.94;10485230;28;20049;-87
2023/06/23 21:01:36;;;;;;;3.80;2.78;;;;;;;18.63;73.75;100496.22;10488401;28;20048;-88
2023/06/23 21:06:38;;;;;;;4.05;2.78;;;;;;;18.62;74.70;100506.50;10460737;28;20048;-88
2023/06/23 21:11:40;;;;;;;6.05;3.00;;;;;;;18.59;74.94;100501.63;10474107;28;20047;-88
2023/06/23 21:16:43;;;;;;;4.90;2.83;;;;;;;18.57;74.40;100503.94;10488701;28;20060;-86
2023/06/23 21:21:45;;;;;;;5.10;2.72;;;;;;;18.54;74.84;100504.56;10491254;28;20037;-88
2023/06/23 21:26:47;;;;;;;5.13;3.10;;;;;;;18.50;74.89;100503.63;10473905;28;20079;-88
2023/06/23 21:31:49;;;;;;;5.68;2.78;;;;;;;18.49;75.16;100503.97;10465240;28;20415;-86
2023/06/23 21:36:52;;;;;;;3.90;3.20;;;;;;;18.48;75.46;100516.25;10497481;28;20533;-87
2023/06/23 21:41:54;;;;;;;4.18;2.95;;;;;;;18.47;75.63;100515.44;10500412;28;20048;-87
2023/06/23 21:46:56;;;;;;;5.32;3.17;;;;;;;18.45;75.84;100508.59;10475294;28;20053;-89
2023/06/23 21:51:59;;;;;;;4.35;2.88;;;;;;;18.44;75.83;100509.75;10456677;28;20048;-87
2023/06/23 21:57:01;;;;;;;4.55;3.10;;;;;;;18.44;76.51;100520.84;10464639;28;20040;-86
2023/06/23 22:02:03;;;;;;;4.22;2.70;;;;;;;18.42;76.36;100520.38;10482763;28;20040;-87
2023/06/23 22:07:05;;;;;;;3.75;2.78;;;;;;;18.40;76.76;100520.72;10468407;28;20048;-87
2023/06/23 22:12:08;;;;;;;4.45;3.00;;;;;;;18.40;76.76;100512.38;10460797;28;20476;-87
2023/06/23 22:17:10;;;;;;;5.32;3.22;;;;;;;18.42;76.68;100517.59;10496193;28;20045;-87
2023/06/23 22:22:13;;;;;;;4.72;2.90;;;;;;;18.41;76.91;100524.31;10483295;28;20044;-87
2023/06/23 22:27:18;;;;;;;6.28;3.42;;;;;;;18.40;76.86;100517.94;10511014;28;20056;-87
2023/06/23 22:32:20;;;;;;;4.68;3.08;;;;;;;18.37;78.06;100513.84;10493774;28;20052;-87
2023/06/23 22:37:22;;;;;;;8.50;3.40;;;;;;;18.33;77.72;100509.31;10495872;28;20048;-87
2023/06/23 22:42:25;;;;;;;5.97;3.75;;;;;;;18.29;77.90;100509.16;10513623;28;20052;-88
2023/06/23 22:47:27;;;;;;;6.30;3.28;;;;;;;18.32;78.18;100516.81;10477315;28;20048;-87
2023/06/23 22:52:33;;;;;;;4.65;2.97;;;;;;;18.31;78.13;100511.59;10514702;28;20609;-87
2023/06/23 22:57:35;;;;;;;7.22;3.28;;;;;;;18.24;78.59;100523.25;10480767;28;20036;-87
2023/06/23 23:02:37;;;;;;;7.60;3.30;;;;;;;18.20;79.10;100518.69;10513897;28;20047;-88
2023/06/23 23:07:40;;;;;;;4.28;3.28;;;;;;;18.16;80.02;100514.97;10497870;28;20041;-88
2023/06/23 23:12:42;;;;;;;3.88;2.63;;;;;;;18.08;79.56;100516.66;10494431;28;20036;-87